sensor_id;sensor_type;location;lat;lon;timestamp;P1;durP1;ratioP1;P2;durP2;ratioP2
12151;SDS011;6139;51.274;7.128;2023-07-02T00:00:18;5.57;;;3.50;;
12151;SDS011;6139;51.274;7.128;2023-07-02T00:01:21;6.82;;;4.07;;
12151;SDS011;6139;51.274;7.128;2023-07-02T00:02:22;5.60;;;3.72;;
12151;SDS011;6139;51.274;7.128;2023-07-02T00:03:24;4.88;;;3.80;;
12151;SDS011;6139;51.274;7.128;2023-07-02T00:04:25;7.18;;;3.95;;
12151;SDS011;6139;51.274;7.128;2023-07-02T00:05:27;5.00;;;3.67;;
12151;SDS011;6139;51.274;7.128;2023-07-02T00:06:28;4.80;;;3.72;;
12151;SDS011;6139;51.274;7.128;2023-07-02T00:07:32;7.70;;;3.92;;
12151;SDS011;6139;51.274;7.128;2023-07-02T00:08:36;4.72;;;3.53;;
12151;SDS011;6139;51.274;7.128;2023-07-02T00:09:38;5.53;;;3.67;;
12151;SDS011;6139;51.274;7.128;2023-07-02T00:10:39;7.55;;;3.70;;
12151;SDS011;6139;51.274;7.128;2023-07-02T00:11:41;4.90;;;3.75;;
12151;SDS011;6139;51.274;7.128;2023-07-02T00:12:44;5.85;;;4.07;;
12151;SDS011;6139;51.274;7.128;2023-07-02T00:13:47;5.35;;;4.10;;
12151;SDS011;6139;51.274;7.128;2023-07-02T00:14:48;3.72;;;3.42;;
12151;SDS011;6139;51.274;7.128;2023-07-02T00:15:53;5.47;;;4.25;;
12151;SDS011;6139;51.274;7.128;2023-07-02T00:16:54;5.85;;;4.03;;
12151;SDS011;6139;51.274;7.128;2023-07-02T00:17:55;8.65;;;3.72;;
12151;SDS011;6139;51.274;7.128;2023-07-02T00:18:57;4.72;;;3.90;;
12151;SDS011;6139;51.274;7.128;2023-07-02T00:20:00;5.55;;;3.72;;
12151;SDS011;6139;51.274;7.128;2023-07-02T00:21:08;4.03;;;3.63;;
12151;SDS011;6139;51.274;7.128;2023-07-02T00:22:14;8.32;;;3.95;;
12151;SDS011;6139;51.274;7.128;2023-07-02T00:23:16;6.57;;;4.13;;
12151;SDS011;6139;51.274;7.128;2023-07-02T00:24:18;5.20;;;4.20;;
12151;SDS011;6139;51.274;7.128;2023-07-02T00:25:19;5.38;;;3.97;;
12151;SDS011;6139;51.274;7.128;2023-07-02T00:26:21;5.75;;;3.92;;
12151;SDS011;6139;51.274;7.128;2023-07-02T00:27:21;5.50;;;4.13;;
12151;SDS011;6139;51.274;7.128;2023-07-02T00:28:23;8.55;;;3.97;;
12151;SDS011;6139;51.274;7.128;2023-07-02T00:29:26;6.78;;;4.18;;
12151;SDS011;6139;51.274;7.128;2023-07-02T00:30:28;7.20;;;4.05;;
12151;SDS011;6139;51.274;7.128;2023-07-02T00:31:29;7.13;;;4.15;;
12151;SDS011;6139;51.274;7.128;2023-07-02T00:32:31;5.90;;;4.00;;
12151;SDS011;6139;51.274;7.128;2023-07-02T00:33:32;6.70;;;4.03;;
12151;SDS011;6139;51.274;7.128;2023-07-02T00:34:34;6.35;;;3.97;;
12151;SDS011;6139;51.274;7.128;2023-07-02T00:35:35;4.63;;;3.67;;
12151;SDS011;6139;51.274;7.128;2023-07-02T00:36:37;4.95;;;4.00;;
12151;SDS011;6139;51.274;7.128;2023-07-02T00:37:38;6.35;;;3.97;;
12151;SDS011;6139;51.274;7.128;2023-07-02T00:38:40;6.80;;;4.18;;
12151;SDS011;6139;51.274;7.128;2023-07-02T00:39:42;6.68;;;3.60;;
12151;SDS011;6139;51.274;7.128;2023-07-02T00:40:44;4.95;;;4.20;;
12151;SDS011;6139;51.274;7.128;2023-07-02T00:41:45;5.97;;;4.15;;
12151;SDS011;6139;51.274;7.128;2023-07-02T00:42:47;6.35;;;4.18;;
12151;SDS011;6139;51.274;7.128;2023-07-02T00:43:48;6.82;;;4.10;;
12151;SDS011;6139;51.274;7.128;2023-07-02T00:44:51;5.95;;;3.88;;
12151;SDS011;6139;51.274;7.128;2023-07-02T00:45:52;6.18;;;4.30;;
12151;SDS011;6139;51.274;7.128;2023-07-02T00:46:54;7.95;;;3.97;;
12151;SDS011;6139;51.274;7.128;2023-07-02T00:47:55;6.97;;;3.97;;
12151;SDS011;6139;51.274;7.128;2023-07-02T00:48:58;6.00;;;3.63;;
12151;SDS011;6139;51.274;7.128;2023-07-02T00:50:03;4.93;;;3.60;;
12151;SDS011;6139;51.274;7.128;2023-07-02T00:51:07;6.88;;;3.85;;
12151;SDS011;6139;51.274;7.128;2023-07-02T00:52:09;4.65;;;3.60;;
12151;SDS011;6139;51.274;7.128;2023-07-02T00:53:12;8.77;;;3.78;;
12151;SDS011;6139;51.274;7.128;2023-07-02T00:54:13;6.30;;;3.97;;
12151;SDS011;6139;51.274;7.128;2023-07-02T00:55:16;6.60;;;4.10;;
12151;SDS011;6139;51.274;7.128;2023-07-02T00:56:16;6.40;;;4.07;;
12151;SDS011;6139;51.274;7.128;2023-07-02T00:57:21;6.05;;;3.50;;
12151;SDS011;6139;51.274;7.128;2023-07-02T00:58:22;5.57;;;4.07;;
12151;SDS011;6139;51.274;7.128;2023-07-02T00:59:24;6.20;;;3.88;;
12151;SDS011;6139;51.274;7.128;2023-07-02T01:00:26;6.53;;;4.35;;
12151;SDS011;6139;51.274;7.128;2023-07-02T01:01:29;8.20;;;3.95;;
12151;SDS011;6139;51.274;7.128;2023-07-02T01:02:31;5.82;;;3.70;;
12151;SDS011;6139;51.274;7.128;2023-07-02T01:03:33;6.65;;;3.92;;
12151;SDS011;6139;51.274;7.128;2023-07-02T01:04:37;8.73;;;4.03;;
12151;SDS011;6139;51.274;7.128;2023-07-02T01:05:39;5.78;;;4.07;;
12151;SDS011;6139;51.274;7.128;2023-07-02T01:06:42;6.60;;;3.70;;
12151;SDS011;6139;51.274;7.128;2023-07-02T01:07:44;8.07;;;3.80;;
12151;SDS011;6139;51.274;7.128;2023-07-02T01:08:46;7.70;;;4.25;;
12151;SDS011;6139;51.274;7.128;2023-07-02T01:09:48;7.68;;;3.90;;
12151;SDS011;6139;51.274;7.128;2023-07-02T01:10:49;5.72;;;3.90;;
12151;SDS011;6139;51.274;7.128;2023-07-02T01:11:53;4.10;;;3.70;;
12151;SDS011;6139;51.274;7.128;2023-07-02T01:12:56;5.05;;;3.67;;
12151;SDS011;6139;51.274;7.128;2023-07-02T01:14:02;6.35;;;3.92;;
12151;SDS011;6139;51.274;7.128;2023-07-02T01:15:06;7.43;;;4.03;;
12151;SDS011;6139;51.274;7.128;2023-07-02T01:16:10;5.63;;;4.32;;
12151;SDS011;6139;51.274;7.128;2023-07-02T01:17:11;6.03;;;3.97;;
12151;SDS011;6139;51.274;7.128;2023-07-02T01:18:14;5.10;;;4.18;;
12151;SDS011;6139;51.274;7.128;2023-07-02T01:19:16;5.93;;;4.03;;
12151;SDS011;6139;51.274;7.128;2023-07-02T01:20:22;6.35;;;3.88;;
12151;SDS011;6139;51.274;7.128;2023-07-02T01:21:28;9.07;;;4.40;;
12151;SDS011;6139;51.274;7.128;2023-07-02T01:22:30;7.90;;;4.25;;
12151;SDS011;6139;51.274;7.128;2023-07-02T01:23:31;9.68;;;4.15;;
12151;SDS011;6139;51.274;7.128;2023-07-02T01:24:33;9.32;;;4.57;;
12151;SDS011;6139;51.274;7.128;2023-07-02T01:25:35;6.95;;;4.68;;
12151;SDS011;6139;51.274;7.128;2023-07-02T01:26:38;5.85;;;4.07;;
12151;SDS011;6139;51.274;7.128;2023-07-02T01:27:40;5.78;;;4.15;;
12151;SDS011;6139;51.274;7.128;2023-07-02T01:28:42;8.50;;;4.30;;
12151;SDS011;6139;51.274;7.128;2023-07-02T01:29:43;6.85;;;4.18;;
12151;SDS011;6139;51.274;7.128;2023-07-02T01:30:47;5.47;;;4.15;;
12151;SDS011;6139;51.274;7.128;2023-07-02T01:31:47;6.85;;;4.28;;
12151;SDS011;6139;51.274;7.128;2023-07-02T01:32:49;8.95;;;4.32;;
12151;SDS011;6139;51.274;7.128;2023-07-02T01:33:51;8.90;;;4.25;;
12151;SDS011;6139;51.274;7.128;2023-07-02T01:34:53;9.25;;;4.07;;
12151;SDS011;6139;51.274;7.128;2023-07-02T01:35:55;8.85;;;4.80;;
12151;SDS011;6139;51.274;7.128;2023-07-02T01:36:58;9.10;;;4.53;;
12151;SDS011;6139;51.274;7.128;2023-07-02T01:37:59;10.00;;;4.93;;
12151;SDS011;6139;51.274;7.128;2023-07-02T01:39:01;8.05;;;4.68;;
12151;SDS011;6139;51.274;7.128;2023-07-02T01:40:03;9.90;;;4.82;;
12151;SDS011;6139;51.274;7.128;2023-07-02T01:41:06;7.47;;;4.55;;
12151;SDS011;6139;51.274;7.128;2023-07-02T01:42:07;10.40;;;5.15;;
12151;SDS011;6139;51.274;7.128;2023-07-02T01:43:10;8.65;;;5.22;;
12151;SDS011;6139;51.274;7.128;2023-07-02T01:44:11;8.68;;;4.95;;
12151;SDS011;6139;51.274;7.128;2023-07-02T01:45:13;10.05;;;4.72;;
12151;SDS011;6139;51.274;7.128;2023-07-02T01:46:14;7.40;;;5.35;;
12151;SDS011;6139;51.274;7.128;2023-07-02T01:47:16;9.30;;;5.10;;
12151;SDS011;6139;51.274;7.128;2023-07-02T01:48:19;6.57;;;4.45;;
12151;SDS011;6139;51.274;7.128;2023-07-02T01:49:22;8.25;;;5.32;;
12151;SDS011;6139;51.274;7.128;2023-07-02T01:50:22;13.85;;;5.65;;
12151;SDS011;6139;51.274;7.128;2023-07-02T01:51:27;6.88;;;4.90;;
12151;SDS011;6139;51.274;7.128;2023-07-02T01:52:29;12.48;;;6.32;;
12151;SDS011;6139;51.274;7.128;2023-07-02T01:53:34;12.02;;;6.45;;
12151;SDS011;6139;51.274;7.128;2023-07-02T01:54:35;14.75;;;6.15;;
12151;SDS011;6139;51.274;7.128;2023-07-02T01:55:37;9.25;;;5.90;;
12151;SDS011;6139;51.274;7.128;2023-07-02T01:56:38;9.05;;;5.65;;
12151;SDS011;6139;51.274;7.128;2023-07-02T01:57:40;8.73;;;5.53;;
12151;SDS011;6139;51.274;7.128;2023-07-02T01:58:41;12.38;;;6.10;;
12151;SDS011;6139;51.274;7.128;2023-07-02T01:59:44;13.82;;;5.60;;
12151;SDS011;6139;51.274;7.128;2023-07-02T02:00:45;8.82;;;5.55;;
12151;SDS011;6139;51.274;7.128;2023-07-02T02:01:46;10.63;;;5.78;;
12151;SDS011;6139;51.274;7.128;2023-07-02T02:02:48;9.13;;;6.28;;
12151;SDS011;6139;51.274;7.128;2023-07-02T02:03:50;10.23;;;6.13;;
12151;SDS011;6139;51.274;7.128;2023-07-02T02:04:51;10.32;;;5.97;;
12151;SDS011;6139;51.274;7.128;2023-07-02T02:05:54;10.82;;;6.25;;
12151;SDS011;6139;51.274;7.128;2023-07-02T02:06:56;12.20;;;6.35;;
12151;SDS011;6139;51.274;7.128;2023-07-02T02:07:58;11.63;;;6.55;;
12151;SDS011;6139;51.274;7.128;2023-07-02T02:08:59;8.13;;;6.38;;
12151;SDS011;6139;51.274;7.128;2023-07-02T02:10:01;11.57;;;6.55;;
12151;SDS011;6139;51.274;7.128;2023-07-02T02:11:02;11.73;;;6.30;;
12151;SDS011;6139;51.274;7.128;2023-07-02T02:12:04;13.63;;;6.43;;
12151;SDS011;6139;51.274;7.128;2023-07-02T02:13:05;12.18;;;6.32;;
12151;SDS011;6139;51.274;7.128;2023-07-02T02:14:07;11.48;;;6.13;;
12151;SDS011;6139;51.274;7.128;2023-07-02T02:15:08;10.77;;;6.22;;
12151;SDS011;6139;51.274;7.128;2023-07-02T02:16:14;12.40;;;6.90;;
12151;SDS011;6139;51.274;7.128;2023-07-02T02:17:15;11.98;;;7.25;;
12151;SDS011;6139;51.274;7.128;2023-07-02T02:18:17;11.38;;;6.85;;
12151;SDS011;6139;51.274;7.128;2023-07-02T02:19:17;12.32;;;7.13;;
12151;SDS011;6139;51.274;7.128;2023-07-02T02:20:19;12.18;;;6.85;;
12151;SDS011;6139;51.274;7.128;2023-07-02T02:21:20;13.48;;;7.22;;
12151;SDS011;6139;51.274;7.128;2023-07-02T02:22:24;11.48;;;6.78;;
12151;SDS011;6139;51.274;7.128;2023-07-02T02:23:25;13.38;;;7.32;;
12151;SDS011;6139;51.274;7.128;2023-07-02T02:24:27;18.10;;;7.65;;
12151;SDS011;6139;51.274;7.128;2023-07-02T02:25:28;13.68;;;7.85;;
12151;SDS011;6139;51.274;7.128;2023-07-02T02:26:30;13.18;;;6.80;;
12151;SDS011;6139;51.274;7.128;2023-07-02T02:27:31;15.85;;;7.68;;
12151;SDS011;6139;51.274;7.128;2023-07-02T02:28:34;12.15;;;7.20;;
12151;SDS011;6139;51.274;7.128;2023-07-02T02:29:35;12.35;;;7.60;;
12151;SDS011;6139;51.274;7.128;2023-07-02T02:30:37;12.65;;;7.35;;
12151;SDS011;6139;51.274;7.128;2023-07-02T02:31:39;11.90;;;7.20;;
12151;SDS011;6139;51.274;7.128;2023-07-02T02:32:40;14.45;;;8.23;;
12151;SDS011;6139;51.274;7.128;2023-07-02T02:33:44;10.60;;;7.13;;
12151;SDS011;6139;51.274;7.128;2023-07-02T02:34:47;11.25;;;7.45;;
12151;SDS011;6139;51.274;7.128;2023-07-02T02:35:48;16.55;;;8.77;;
12151;SDS011;6139;51.274;7.128;2023-07-02T02:36:50;12.82;;;7.95;;
12151;SDS011;6139;51.274;7.128;2023-07-02T02:37:52;15.00;;;7.97;;
12151;SDS011;6139;51.274;7.128;2023-07-02T02:38:55;15.25;;;8.43;;
12151;SDS011;6139;51.274;7.128;2023-07-02T02:39:56;10.85;;;7.57;;
12151;SDS011;6139;51.274;7.128;2023-07-02T02:40:59;12.10;;;7.50;;
12151;SDS011;6139;51.274;7.128;2023-07-02T02:42:01;13.10;;;7.72;;
12151;SDS011;6139;51.274;7.128;2023-07-02T02:43:03;14.23;;;8.70;;
12151;SDS011;6139;51.274;7.128;2023-07-02T02:44:04;11.50;;;7.88;;
12151;SDS011;6139;51.274;7.128;2023-07-02T02:45:06;15.48;;;9.07;;
12151;SDS011;6139;51.274;7.128;2023-07-02T02:46:09;16.02;;;8.07;;
12151;SDS011;6139;51.274;7.128;2023-07-02T02:47:11;13.65;;;8.80;;
12151;SDS011;6139;51.274;7.128;2023-07-02T02:48:12;11.90;;;8.43;;
12151;SDS011;6139;51.274;7.128;2023-07-02T02:49:14;16.83;;;8.07;;
12151;SDS011;6139;51.274;7.128;2023-07-02T02:50:15;15.05;;;8.75;;
12151;SDS011;6139;51.274;7.128;2023-07-02T02:51:17;16.13;;;8.40;;
12151;SDS011;6139;51.274;7.128;2023-07-02T02:52:18;14.10;;;7.95;;
12151;SDS011;6139;51.274;7.128;2023-07-02T02:53:21;14.82;;;8.00;;
12151;SDS011;6139;51.274;7.128;2023-07-02T02:54:22;15.63;;;8.73;;
12151;SDS011;6139;51.274;7.128;2023-07-02T02:55:24;14.30;;;8.07;;
12151;SDS011;6139;51.274;7.128;2023-07-02T02:56:26;17.67;;;9.20;;
12151;SDS011;6139;51.274;7.128;2023-07-02T02:57:28;15.15;;;8.32;;
12151;SDS011;6139;51.274;7.128;2023-07-02T02:58:29;14.20;;;8.80;;
12151;SDS011;6139;51.274;7.128;2023-07-02T02:59:31;18.02;;;8.52;;
12151;SDS011;6139;51.274;7.128;2023-07-02T03:00:32;15.38;;;8.95;;
12151;SDS011;6139;51.274;7.128;2023-07-02T03:01:34;13.27;;;8.40;;
12151;SDS011;6139;51.274;7.128;2023-07-02T03:02:35;17.70;;;9.52;;
12151;SDS011;6139;51.274;7.128;2023-07-02T03:03:38;13.48;;;9.18;;
12151;SDS011;6139;51.274;7.128;2023-07-02T03:04:39;16.17;;;9.55;;
12151;SDS011;6139;51.274;7.128;2023-07-02T03:05:44;17.05;;;9.60;;
12151;SDS011;6139;51.274;7.128;2023-07-02T03:06:47;17.65;;;9.52;;
12151;SDS011;6139;51.274;7.128;2023-07-02T03:07:50;17.45;;;9.60;;
12151;SDS011;6139;51.274;7.128;2023-07-02T03:08:52;15.98;;;9.60;;
12151;SDS011;6139;51.274;7.128;2023-07-02T03:09:54;16.85;;;9.35;;
12151;SDS011;6139;51.274;7.128;2023-07-02T03:10:56;15.10;;;9.80;;
12151;SDS011;6139;51.274;7.128;2023-07-02T03:11:58;14.85;;;9.85;;
12151;SDS011;6139;51.274;7.128;2023-07-02T03:12:59;18.67;;;9.77;;
12151;SDS011;6139;51.274;7.128;2023-07-02T03:14:01;18.10;;;10.07;;
12151;SDS011;6139;51.274;7.128;2023-07-02T03:15:02;16.95;;;10.50;;
12151;SDS011;6139;51.274;7.128;2023-07-02T03:16:04;16.75;;;10.50;;
12151;SDS011;6139;51.274;7.128;2023-07-02T03:17:05;14.32;;;9.82;;
12151;SDS011;6139;51.274;7.128;2023-07-02T03:18:07;15.20;;;9.60;;
12151;SDS011;6139;51.274;7.128;2023-07-02T03:19:08;17.92;;;9.77;;
12151;SDS011;6139;51.274;7.128;2023-07-02T03:20:10;16.42;;;10.85;;
12151;SDS011;6139;51.274;7.128;2023-07-02T03:21:12;17.85;;;10.18;;
12151;SDS011;6139;51.274;7.128;2023-07-02T03:22:14;16.77;;;10.40;;
12151;SDS011;6139;51.274;7.128;2023-07-02T03:23:15;18.05;;;10.15;;
12151;SDS011;6139;51.274;7.128;2023-07-02T03:24:18;21.13;;;10.35;;
12151;SDS011;6139;51.274;7.128;2023-07-02T03:25:19;18.92;;;11.15;;
12151;SDS011;6139;51.274;7.128;2023-07-02T03:26:21;19.67;;;10.88;;
12151;SDS011;6139;51.274;7.128;2023-07-02T03:27:23;15.15;;;9.70;;
12151;SDS011;6139;51.274;7.128;2023-07-02T03:28:25;17.83;;;10.50;;
12151;SDS011;6139;51.274;7.128;2023-07-02T03:29:26;19.48;;;10.48;;
12151;SDS011;6139;51.274;7.128;2023-07-02T03:30:28;16.17;;;10.35;;
12151;SDS011;6139;51.274;7.128;2023-07-02T03:31:29;16.67;;;11.45;;
12151;SDS011;6139;51.274;7.128;2023-07-02T03:32:31;16.35;;;10.90;;
12151;SDS011;6139;51.274;7.128;2023-07-02T03:33:32;22.58;;;11.52;;
12151;SDS011;6139;51.274;7.128;2023-07-02T03:34:34;20.48;;;11.18;;
12151;SDS011;6139;51.274;7.128;2023-07-02T03:35:35;18.90;;;11.00;;
12151;SDS011;6139;51.274;7.128;2023-07-02T03:36:37;17.77;;;11.07;;
12151;SDS011;6139;51.274;7.128;2023-07-02T03:37:39;18.45;;;11.73;;
12151;SDS011;6139;51.274;7.128;2023-07-02T03:38:43;20.58;;;11.85;;
12151;SDS011;6139;51.274;7.128;2023-07-02T03:39:47;21.65;;;11.85;;
12151;SDS011;6139;51.274;7.128;2023-07-02T03:40:48;20.17;;;11.30;;
12151;SDS011;6139;51.274;7.128;2023-07-02T03:41:50;18.20;;;11.18;;
12151;SDS011;6139;51.274;7.128;2023-07-02T03:42:51;17.40;;;11.35;;
12151;SDS011;6139;51.274;7.128;2023-07-02T03:43:52;19.95;;;11.70;;
12151;SDS011;6139;51.274;7.128;2023-07-02T03:44:53;20.67;;;12.63;;
12151;SDS011;6139;51.274;7.128;2023-07-02T03:45:57;24.80;;;12.57;;
12151;SDS011;6139;51.274;7.128;2023-07-02T03:46:58;22.45;;;11.75;;
12151;SDS011;6139;51.274;7.128;2023-07-02T03:48:00;19.92;;;11.55;;
12151;SDS011;6139;51.274;7.128;2023-07-02T03:49:01;23.60;;;12.27;;
12151;SDS011;6139;51.274;7.128;2023-07-02T03:50:04;19.83;;;12.38;;
12151;SDS011;6139;51.274;7.128;2023-07-02T03:51:05;18.45;;;11.63;;
12151;SDS011;6139;51.274;7.128;2023-07-02T03:52:08;20.88;;;11.98;;
12151;SDS011;6139;51.274;7.128;2023-07-02T03:53:09;19.55;;;11.85;;
12151;SDS011;6139;51.274;7.128;2023-07-02T03:54:11;23.63;;;12.32;;
12151;SDS011;6139;51.274;7.128;2023-07-02T03:55:13;19.13;;;12.07;;
12151;SDS011;6139;51.274;7.128;2023-07-02T03:56:15;22.05;;;12.98;;
12151;SDS011;6139;51.274;7.128;2023-07-02T03:57:16;19.98;;;12.35;;
12151;SDS011;6139;51.274;7.128;2023-07-02T03:58:18;22.45;;;12.52;;
12151;SDS011;6139;51.274;7.128;2023-07-02T03:59:19;23.02;;;13.82;;
12151;SDS011;6139;51.274;7.128;2023-07-02T04:00:21;18.98;;;11.85;;
12151;SDS011;6139;51.274;7.128;2023-07-02T04:01:24;20.83;;;12.20;;
12151;SDS011;6139;51.274;7.128;2023-07-02T04:02:25;21.60;;;12.60;;
12151;SDS011;6139;51.274;7.128;2023-07-02T04:03:27;21.23;;;13.13;;
12151;SDS011;6139;51.274;7.128;2023-07-02T04:04:28;17.80;;;12.25;;
12151;SDS011;6139;51.274;7.128;2023-07-02T04:05:30;21.83;;;13.20;;
12151;SDS011;6139;51.274;7.128;2023-07-02T04:06:32;20.90;;;12.95;;
12151;SDS011;6139;51.274;7.128;2023-07-02T04:07:34;21.08;;;12.13;;
12151;SDS011;6139;51.274;7.128;2023-07-02T04:08:35;19.15;;;12.60;;
12151;SDS011;6139;51.274;7.128;2023-07-02T04:09:37;23.58;;;13.00;;
12151;SDS011;6139;51.274;7.128;2023-07-02T04:10:40;22.83;;;13.38;;
12151;SDS011;6139;51.274;7.128;2023-07-02T04:11:42;20.20;;;12.95;;
12151;SDS011;6139;51.274;7.128;2023-07-02T04:12:42;19.52;;;12.80;;
12151;SDS011;6139;51.274;7.128;2023-07-02T04:13:44;24.50;;;13.98;;
12151;SDS011;6139;51.274;7.128;2023-07-02T04:14:45;20.30;;;13.15;;
12151;SDS011;6139;51.274;7.128;2023-07-02T04:15:47;23.77;;;12.77;;
12151;SDS011;6139;51.274;7.128;2023-07-02T04:16:48;21.95;;;13.15;;
12151;SDS011;6139;51.274;7.128;2023-07-02T04:17:50;20.05;;;13.27;;
12151;SDS011;6139;51.274;7.128;2023-07-02T04:18:51;23.85;;;13.65;;
12151;SDS011;6139;51.274;7.128;2023-07-02T04:19:53;26.23;;;13.70;;
12151;SDS011;6139;51.274;7.128;2023-07-02T04:20:55;24.70;;;13.35;;
12151;SDS011;6139;51.274;7.128;2023-07-02T04:21:57;22.95;;;12.45;;
12151;SDS011;6139;51.274;7.128;2023-07-02T04:22:58;19.80;;;13.13;;
12151;SDS011;6139;51.274;7.128;2023-07-02T04:24:00;22.38;;;13.63;;
12151;SDS011;6139;51.274;7.128;2023-07-02T04:25:01;24.50;;;13.65;;
12151;SDS011;6139;51.274;7.128;2023-07-02T04:26:04;25.05;;;14.13;;
12151;SDS011;6139;51.274;7.128;2023-07-02T04:27:06;23.35;;;12.60;;
12151;SDS011;6139;51.274;7.128;2023-07-02T04:28:08;23.58;;;13.73;;
12151;SDS011;6139;51.274;7.128;2023-07-02T04:29:09;21.00;;;12.95;;
12151;SDS011;6139;51.274;7.128;2023-07-02T04:30:11;22.33;;;13.05;;
12151;SDS011;6139;51.274;7.128;2023-07-02T04:31:12;22.70;;;13.35;;
12151;SDS011;6139;51.274;7.128;2023-07-02T04:32:14;23.60;;;13.32;;
12151;SDS011;6139;51.274;7.128;2023-07-02T04:33:15;22.85;;;13.45;;
12151;SDS011;6139;51.274;7.128;2023-07-02T04:34:17;22.92;;;13.50;;
12151;SDS011;6139;51.274;7.128;2023-07-02T04:35:21;19.10;;;12.90;;
12151;SDS011;6139;51.274;7.128;2023-07-02T04:36:23;25.17;;;14.73;;
12151;SDS011;6139;51.274;7.128;2023-07-02T04:37:24;22.50;;;14.00;;
12151;SDS011;6139;51.274;7.128;2023-07-02T04:38:28;21.75;;;14.88;;
12151;SDS011;6139;51.274;7.128;2023-07-02T04:39:29;22.13;;;13.88;;
12151;SDS011;6139;51.274;7.128;2023-07-02T04:40:31;23.77;;;13.20;;
12151;SDS011;6139;51.274;7.128;2023-07-02T04:41:33;30.45;;;13.77;;
12151;SDS011;6139;51.274;7.128;2023-07-02T04:42:35;29.00;;;15.48;;
12151;SDS011;6139;51.274;7.128;2023-07-02T04:43:37;22.83;;;14.40;;
12151;SDS011;6139;51.274;7.128;2023-07-02T04:44:39;28.08;;;15.13;;
12151;SDS011;6139;51.274;7.128;2023-07-02T04:45:43;24.75;;;14.75;;
12151;SDS011;6139;51.274;7.128;2023-07-02T04:46:45;23.80;;;13.98;;
12151;SDS011;6139;51.274;7.128;2023-07-02T04:47:47;28.50;;;14.48;;
12151;SDS011;6139;51.274;7.128;2023-07-02T04:48:48;24.73;;;13.93;;
12151;SDS011;6139;51.274;7.128;2023-07-02T04:49:49;23.85;;;14.18;;
12151;SDS011;6139;51.274;7.128;2023-07-02T04:50:51;22.80;;;13.70;;
12151;SDS011;6139;51.274;7.128;2023-07-02T04:51:52;22.92;;;14.20;;
12151;SDS011;6139;51.274;7.128;2023-07-02T04:52:54;24.88;;;14.88;;
12151;SDS011;6139;51.274;7.128;2023-07-02T04:53:56;25.95;;;14.98;;
12151;SDS011;6139;51.274;7.128;2023-07-02T04:54:58;24.23;;;14.10;;
12151;SDS011;6139;51.274;7.128;2023-07-02T04:55:59;23.80;;;14.55;;
12151;SDS011;6139;51.274;7.128;2023-07-02T04:57:03;20.70;;;12.85;;
12151;SDS011;6139;51.274;7.128;2023-07-02T04:58:04;25.00;;;15.05;;
12151;SDS011;6139;51.274;7.128;2023-07-02T04:59:06;23.67;;;15.13;;
12151;SDS011;6139;51.274;7.128;2023-07-02T05:00:07;25.30;;;14.55;;
12151;SDS011;6139;51.274;7.128;2023-07-02T05:01:09;25.70;;;14.65;;
12151;SDS011;6139;51.274;7.128;2023-07-02T05:02:10;25.65;;;14.85;;
12151;SDS011;6139;51.274;7.128;2023-07-02T05:03:12;26.92;;;14.57;;
12151;SDS011;6139;51.274;7.128;2023-07-02T05:04:13;27.35;;;15.52;;
12151;SDS011;6139;51.274;7.128;2023-07-02T05:05:15;26.45;;;15.40;;
12151;SDS011;6139;51.274;7.128;2023-07-02T05:06:16;25.60;;;14.40;;
12151;SDS011;6139;51.274;7.128;2023-07-02T05:07:18;24.52;;;14.65;;
12151;SDS011;6139;51.274;7.128;2023-07-02T05:08:19;22.38;;;14.90;;
12151;SDS011;6139;51.274;7.128;2023-07-02T05:09:21;23.20;;;14.95;;
12151;SDS011;6139;51.274;7.128;2023-07-02T05:10:22;25.38;;;15.30;;
12151;SDS011;6139;51.274;7.128;2023-07-02T05:11:24;22.08;;;14.30;;
12151;SDS011;6139;51.274;7.128;2023-07-02T05:12:26;22.50;;;14.40;;
12151;SDS011;6139;51.274;7.128;2023-07-02T05:13:28;29.63;;;16.00;;
12151;SDS011;6139;51.274;7.128;2023-07-02T05:14:29;26.48;;;14.48;;
12151;SDS011;6139;51.274;7.128;2023-07-02T05:15:31;27.08;;;14.55;;
12151;SDS011;6139;51.274;7.128;2023-07-02T05:16:32;26.02;;;14.82;;
12151;SDS011;6139;51.274;7.128;2023-07-02T05:17:34;26.75;;;14.15;;
12151;SDS011;6139;51.274;7.128;2023-07-02T05:18:36;23.48;;;15.13;;
12151;SDS011;6139;51.274;7.128;2023-07-02T05:19:38;27.95;;;15.07;;
12151;SDS011;6139;51.274;7.128;2023-07-02T05:20:41;23.52;;;14.75;;
12151;SDS011;6139;51.274;7.128;2023-07-02T05:21:43;23.92;;;15.70;;
12151;SDS011;6139;51.274;7.128;2023-07-02T05:22:44;25.60;;;15.18;;
12151;SDS011;6139;51.274;7.128;2023-07-02T05:23:46;26.67;;;14.75;;
12151;SDS011;6139;51.274;7.128;2023-07-02T05:24:47;28.20;;;15.30;;
12151;SDS011;6139;51.274;7.128;2023-07-02T05:25:49;27.50;;;15.32;;
12151;SDS011;6139;51.274;7.128;2023-07-02T05:26:50;24.45;;;15.18;;
12151;SDS011;6139;51.274;7.128;2023-07-02T05:27:54;23.08;;;14.88;;
12151;SDS011;6139;51.274;7.128;2023-07-02T05:28:54;27.23;;;15.75;;
12151;SDS011;6139;51.274;7.128;2023-07-02T05:29:56;24.55;;;16.00;;
12151;SDS011;6139;51.274;7.128;2023-07-02T05:30:57;25.48;;;14.70;;
12151;SDS011;6139;51.274;7.128;2023-07-02T05:31:59;23.98;;;15.50;;
12151;SDS011;6139;51.274;7.128;2023-07-02T05:33:00;25.83;;;15.52;;
12151;SDS011;6139;51.274;7.128;2023-07-02T05:34:02;25.25;;;16.55;;
12151;SDS011;6139;51.274;7.128;2023-07-02T05:35:03;28.77;;;15.82;;
12151;SDS011;6139;51.274;7.128;2023-07-02T05:36:06;27.67;;;15.48;;
12151;SDS011;6139;51.274;7.128;2023-07-02T05:37:08;27.02;;;15.90;;
12151;SDS011;6139;51.274;7.128;2023-07-02T05:38:08;27.90;;;14.98;;
12151;SDS011;6139;51.274;7.128;2023-07-02T05:39:10;26.33;;;15.68;;
12151;SDS011;6139;51.274;7.128;2023-07-02T05:40:11;25.52;;;15.30;;
12151;SDS011;6139;51.274;7.128;2023-07-02T05:41:17;30.35;;;16.58;;
12151;SDS011;6139;51.274;7.128;2023-07-02T05:42:19;27.80;;;15.48;;
12151;SDS011;6139;51.274;7.128;2023-07-02T05:43:22;24.42;;;15.45;;
12151;SDS011;6139;51.274;7.128;2023-07-02T05:44:23;27.80;;;16.13;;
12151;SDS011;6139;51.274;7.128;2023-07-02T05:45:25;22.45;;;15.40;;
12151;SDS011;6139;51.274;7.128;2023-07-02T05:46:27;26.15;;;15.43;;
12151;SDS011;6139;51.274;7.128;2023-07-02T05:47:29;24.90;;;16.35;;
12151;SDS011;6139;51.274;7.128;2023-07-02T05:48:30;27.52;;;15.77;;
12151;SDS011;6139;51.274;7.128;2023-07-02T05:49:32;22.85;;;16.08;;
12151;SDS011;6139;51.274;7.128;2023-07-02T05:50:33;32.50;;;16.52;;
12151;SDS011;6139;51.274;7.128;2023-07-02T05:51:35;29.10;;;15.93;;
12151;SDS011;6139;51.274;7.128;2023-07-02T05:52:36;26.45;;;16.25;;
12151;SDS011;6139;51.274;7.128;2023-07-02T05:53:38;25.30;;;15.82;;
12151;SDS011;6139;51.274;7.128;2023-07-02T05:54:39;25.33;;;15.18;;
12151;SDS011;6139;51.274;7.128;2023-07-02T05:55:41;23.85;;;15.70;;
12151;SDS011;6139;51.274;7.128;2023-07-02T05:56:43;26.70;;;15.73;;
12151;SDS011;6139;51.274;7.128;2023-07-02T05:57:45;27.65;;;15.77;;
12151;SDS011;6139;51.274;7.128;2023-07-02T05:58:48;28.02;;;16.40;;
12151;SDS011;6139;51.274;7.128;2023-07-02T05:59:50;27.17;;;15.85;;
12151;SDS011;6139;51.274;7.128;2023-07-02T06:00:51;26.02;;;14.93;;
12151;SDS011;6139;51.274;7.128;2023-07-02T06:01:53;33.70;;;16.45;;
12151;SDS011;6139;51.274;7.128;2023-07-02T06:02:54;25.17;;;15.85;;
12151;SDS011;6139;51.274;7.128;2023-07-02T06:03:56;28.48;;;15.85;;
12151;SDS011;6139;51.274;7.128;2023-07-02T06:04:57;27.45;;;15.85;;
12151;SDS011;6139;51.274;7.128;2023-07-02T06:05:59;24.15;;;15.70;;
12151;SDS011;6139;51.274;7.128;2023-07-02T06:07:00;26.73;;;15.45;;
12151;SDS011;6139;51.274;7.128;2023-07-02T06:08:02;30.23;;;16.55;;
12151;SDS011;6139;51.274;7.128;2023-07-02T06:09:03;27.27;;;15.88;;
12151;SDS011;6139;51.274;7.128;2023-07-02T06:10:05;25.35;;;16.02;;
12151;SDS011;6139;51.274;7.128;2023-07-02T06:11:07;23.90;;;15.90;;
12151;SDS011;6139;51.274;7.128;2023-07-02T06:12:10;25.98;;;15.52;;